sensor_id;sensor_type;location;lat;lon;timestamp;P1;durP1;ratioP1;P2;durP2;ratioP2
79578;SDS011;69051;52.406;5.280;2023-04-24T00:00:32;8.15;;;3.88;;
79578;SDS011;69051;52.406;5.280;2023-04-24T00:02:58;8.75;;;4.80;;
79578;SDS011;69051;52.406;5.280;2023-04-24T00:05:25;10.93;;;4.90;;
79578;SDS011;69051;52.406;5.280;2023-04-24T00:07:51;9.55;;;4.75;;
79578;SDS011;69051;52.406;5.280;2023-04-24T00:10:21;8.85;;;4.80;;
79578;SDS011;69051;52.406;5.280;2023-04-24T00:12:47;9.43;;;5.00;;
79578;SDS011;69051;52.406;5.280;2023-04-24T00:15:14;10.55;;;6.22;;
79578;SDS011;69051;52.406;5.280;2023-04-24T00:17:40;10.20;;;5.97;;
79578;SDS011;69051;52.406;5.280;2023-04-24T00:20:07;10.57;;;6.18;;
79578;SDS011;69051;52.406;5.280;2023-04-24T00:22:33;11.85;;;6.25;;
79578;SDS011;69051;52.406;5.280;2023-04-24T00:25:00;14.32;;;6.78;;
79578;SDS011;69051;52.406;5.280;2023-04-24T00:27:26;11.45;;;6.55;;
79578;SDS011;69051;52.406;5.280;2023-04-24T00:29:53;16.20;;;7.45;;
79578;SDS011;69051;52.406;5.280;2023-04-24T00:32:19;13.35;;;7.25;;
79578;SDS011;69051;52.406;5.280;2023-04-24T00:34:46;14.27;;;7.20;;
79578;SDS011;69051;52.406;5.280;2023-04-24T00:37:12;12.70;;;7.07;;
79578;SDS011;69051;52.406;5.280;2023-04-24T00:39:39;14.05;;;8.32;;
79578;SDS011;69051;52.406;5.280;2023-04-24T00:42:06;14.52;;;8.00;;
79578;SDS011;69051;52.406;5.280;2023-04-24T00:44:33;15.10;;;8.07;;
79578;SDS011;69051;52.406;5.280;2023-04-24T00:47:01;14.05;;;8.05;;
79578;SDS011;69051;52.406;5.280;2023-04-24T00:49:27;14.93;;;8.40;;
79578;SDS011;69051;52.406;5.280;2023-04-24T00:51:54;14.32;;;7.93;;
79578;SDS011;69051;52.406;5.280;2023-04-24T00:54:20;17.00;;;8.70;;
79578;SDS011;69051;52.406;5.280;2023-04-24T00:56:46;14.13;;;8.23;;
79578;SDS011;69051;52.406;5.280;2023-04-24T00:59:14;17.42;;;7.70;;
79578;SDS011;69051;52.406;5.280;2023-04-24T01:01:42;13.02;;;6.50;;
79578;SDS011;69051;52.406;5.280;2023-04-24T01:04:08;7.50;;;3.58;;
79578;SDS011;69051;52.406;5.280;2023-04-24T01:06:37;6.47;;;2.80;;
79578;SDS011;69051;52.406;5.280;2023-04-24T01:09:05;3.38;;;1.67;;
79578;SDS011;69051;52.406;5.280;2023-04-24T01:11:32;2.95;;;1.52;;
79578;SDS011;69051;52.406;5.280;2023-04-24T01:13:58;4.35;;;1.33;;
79578;SDS011;69051;52.406;5.280;2023-04-24T01:16:25;3.08;;;1.10;;
79578;SDS011;69051;52.406;5.280;2023-04-24T01:18:52;4.10;;;1.02;;
79578;SDS011;69051;52.406;5.280;2023-04-24T01:21:18;2.78;;;0.60;;
79578;SDS011;69051;52.406;5.280;2023-04-24T01:23:47;1.85;;;0.68;;
79578;SDS011;69051;52.406;5.280;2023-04-24T01:26:14;1.48;;;0.75;;
79578;SDS011;69051;52.406;5.280;2023-04-24T01:28:41;2.28;;;0.95;;
79578;SDS011;69051;52.406;5.280;2023-04-24T01:31:08;3.35;;;1.05;;
79578;SDS011;69051;52.406;5.280;2023-04-24T01:33:34;4.65;;;1.30;;
79578;SDS011;69051;52.406;5.280;2023-04-24T01:36:01;4.13;;;1.30;;
79578;SDS011;69051;52.406;5.280;2023-04-24T01:38:27;2.55;;;1.05;;
79578;SDS011;69051;52.406;5.280;2023-04-24T01:40:54;3.55;;;1.35;;
79578;SDS011;69051;52.406;5.280;2023-04-24T01:43:20;5.85;;;1.65;;
79578;SDS011;69051;52.406;5.280;2023-04-24T01:45:47;5.15;;;2.40;;
79578;SDS011;69051;52.406;5.280;2023-04-24T01:48:13;5.75;;;2.58;;
79578;SDS011;69051;52.406;5.280;2023-04-24T01:50:40;6.30;;;2.50;;
79578;SDS011;69051;52.406;5.280;2023-04-24T01:53:07;5.90;;;2.03;;
79578;SDS011;69051;52.406;5.280;2023-04-24T01:55:33;4.88;;;2.13;;
79578;SDS011;69051;52.406;5.280;2023-04-24T01:58:00;6.10;;;2.10;;
79578;SDS011;69051;52.406;5.280;2023-04-24T02:00:28;4.03;;;1.55;;
79578;SDS011;69051;52.406;5.280;2023-04-24T02:02:54;4.13;;;1.40;;
79578;SDS011;69051;52.406;5.280;2023-04-24T02:05:21;2.97;;;1.02;;
79578;SDS011;69051;52.406;5.280;2023-04-24T02:07:47;1.83;;;0.90;;
79578;SDS011;69051;52.406;5.280;2023-04-24T02:10:14;3.42;;;1.20;;
79578;SDS011;69051;52.406;5.280;2023-04-24T02:12:40;1.95;;;0.90;;
79578;SDS011;69051;52.406;5.280;2023-04-24T02:15:07;5.47;;;1.50;;
79578;SDS011;69051;52.406;5.280;2023-04-24T02:17:33;4.15;;;1.33;;
79578;SDS011;69051;52.406;5.280;2023-04-24T02:20:00;3.00;;;1.15;;
79578;SDS011;69051;52.406;5.280;2023-04-24T02:22:26;3.10;;;1.00;;
79578;SDS011;69051;52.406;5.280;2023-04-24T02:24:53;2.88;;;1.15;;
79578;SDS011;69051;52.406;5.280;2023-04-24T02:27:19;2.28;;;0.82;;
79578;SDS011;69051;52.406;5.280;2023-04-24T02:29:46;1.20;;;0.60;;
79578;SDS011;69051;52.406;5.280;2023-04-24T02:32:12;3.03;;;0.80;;
79578;SDS011;69051;52.406;5.280;2023-04-24T02:34:41;1.98;;;0.93;;
79578;SDS011;69051;52.406;5.280;2023-04-24T02:37:08;1.63;;;0.60;;
79578;SDS011;69051;52.406;5.280;2023-04-24T02:39:34;1.65;;;0.73;;
79578;SDS011;69051;52.406;5.280;2023-04-24T02:42:00;1.10;;;0.57;;
79578;SDS011;69051;52.406;5.280;2023-04-24T02:44:27;1.88;;;0.57;;
79578;SDS011;69051;52.406;5.280;2023-04-24T02:46:54;1.63;;;0.63;;
79578;SDS011;69051;52.406;5.280;2023-04-24T02:49:20;3.22;;;0.82;;
79578;SDS011;69051;52.406;5.280;2023-04-24T02:51:46;3.58;;;0.75;;
79578;SDS011;69051;52.406;5.280;2023-04-24T02:54:13;2.67;;;0.85;;
79578;SDS011;69051;52.406;5.280;2023-04-24T02:56:39;6.97;;;0.95;;
79578;SDS011;69051;52.406;5.280;2023-04-24T02:59:06;1.58;;;0.73;;
79578;SDS011;69051;52.406;5.280;2023-04-24T03:01:33;1.70;;;0.80;;
79578;SDS011;69051;52.406;5.280;2023-04-24T03:03:59;1.50;;;0.73;;
79578;SDS011;69051;52.406;5.280;2023-04-24T03:06:26;2.50;;;0.80;;
79578;SDS011;69051;52.406;5.280;2023-04-24T03:08:53;1.50;;;0.80;;
79578;SDS011;69051;52.406;5.280;2023-04-24T03:11:20;2.65;;;0.80;;
79578;SDS011;69051;52.406;5.280;2023-04-24T03:13:46;0.95;;;0.60;;
79578;SDS011;69051;52.406;5.280;2023-04-24T03:16:12;0.90;;;0.47;;
79578;SDS011;69051;52.406;5.280;2023-04-24T03:18:39;2.13;;;0.60;;
79578;SDS011;69051;52.406;5.280;2023-04-24T03:21:05;3.17;;;0.60;;
79578;SDS011;69051;52.406;5.280;2023-04-24T03:23:32;3.53;;;0.73;;
79578;SDS011;69051;52.406;5.280;2023-04-24T03:25:58;3.42;;;0.63;;
79578;SDS011;69051;52.406;5.280;2023-04-24T03:28:25;1.17;;;0.60;;
79578;SDS011;69051;52.406;5.280;2023-04-24T03:30:51;2.22;;;0.80;;
79578;SDS011;69051;52.406;5.280;2023-04-24T03:33:18;1.48;;;0.85;;
79578;SDS011;69051;52.406;5.280;2023-04-24T03:35:44;1.80;;;0.75;;
79578;SDS011;69051;52.406;5.280;2023-04-24T03:38:11;2.17;;;0.68;;
79578;SDS011;69051;52.406;5.280;2023-04-24T03:40:37;0.63;;;0.45;;
79578;SDS011;69051;52.406;5.280;2023-04-24T03:43:03;0.68;;;0.50;;
79578;SDS011;69051;52.406;5.280;2023-04-24T03:45:30;3.70;;;0.77;;
79578;SDS011;69051;52.406;5.280;2023-04-24T03:47:56;1.88;;;0.80;;
79578;SDS011;69051;52.406;5.280;2023-04-24T03:50:23;2.28;;;0.80;;
79578;SDS011;69051;52.406;5.280;2023-04-24T03:52:49;1.10;;;0.50;;
79578;SDS011;69051;52.406;5.280;2023-04-24T03:55:15;2.42;;;0.57;;
79578;SDS011;69051;52.406;5.280;2023-04-24T03:57:42;3.95;;;0.60;;
79578;SDS011;69051;52.406;5.280;2023-04-24T04:00:08;7.82;;;1.85;;
79578;SDS011;69051;52.406;5.280;2023-04-24T04:02:35;1.42;;;0.52;;
79578;SDS011;69051;52.406;5.280;2023-04-24T04:05:02;2.55;;;0.50;;
79578;SDS011;69051;52.406;5.280;2023-04-24T04:07:29;2.03;;;0.50;;
79578;SDS011;69051;52.406;5.280;2023-04-24T04:09:56;0.80;;;0.50;;
79578;SDS011;69051;52.406;5.280;2023-04-24T04:12:22;2.45;;;0.63;;
79578;SDS011;69051;52.406;5.280;2023-04-24T04:14:48;1.80;;;0.50;;
79578;SDS011;69051;52.406;5.280;2023-04-24T04:17:15;1.63;;;0.63;;
79578;SDS011;69051;52.406;5.280;2023-04-24T04:19:41;1.60;;;0.68;;
79578;SDS011;69051;52.406;5.280;2023-04-24T04:22:08;0.70;;;0.50;;
79578;SDS011;69051;52.406;5.280;2023-04-24T04:24:34;1.35;;;0.63;;
79578;SDS011;69051;52.406;5.280;2023-04-24T04:27:04;3.50;;;0.65;;
79578;SDS011;69051;52.406;5.280;2023-04-24T04:29:31;2.70;;;0.63;;
79578;SDS011;69051;52.406;5.280;2023-04-24T04:31:58;3.00;;;0.82;;
79578;SDS011;69051;52.406;5.280;2023-04-24T04:34:24;1.73;;;0.52;;
79578;SDS011;69051;52.406;5.280;2023-04-24T04:36:51;3.85;;;0.60;;
79578;SDS011;69051;52.406;5.280;2023-04-24T04:39:18;5.68;;;0.70;;
79578;SDS011;69051;52.406;5.280;2023-04-24T04:41:45;2.67;;;0.60;;
79578;SDS011;69051;52.406;5.280;2023-04-24T04:44:15;3.05;;;0.90;;
79578;SDS011;69051;52.406;5.280;2023-04-24T04:46:41;2.45;;;0.60;;
79578;SDS011;69051;52.406;5.280;2023-04-24T04:49:08;2.50;;;0.60;;
79578;SDS011;69051;52.406;5.280;2023-04-24T04:51:34;2.97;;;0.63;;
79578;SDS011;69051;52.406;5.280;2023-04-24T04:54:01;1.85;;;0.60;;
79578;SDS011;69051;52.406;5.280;2023-04-24T04:56:27;4.70;;;0.90;;
79578;SDS011;69051;52.406;5.280;2023-04-24T04:58:53;5.10;;;0.93;;
79578;SDS011;69051;52.406;5.280;2023-04-24T05:01:20;2.22;;;0.73;;
79578;SDS011;69051;52.406;5.280;2023-04-24T05:03:49;3.65;;;0.73;;
79578;SDS011;69051;52.406;5.280;2023-04-24T05:06:16;5.53;;;1.15;;
79578;SDS011;69051;52.406;5.280;2023-04-24T05:08:43;2.58;;;0.90;;
79578;SDS011;69051;52.406;5.280;2023-04-24T05:11:09;6.90;;;0.95;;
79578;SDS011;69051;52.406;5.280;2023-04-24T05:13:36;2.47;;;0.90;;
79578;SDS011;69051;52.406;5.280;2023-04-24T05:16:06;6.40;;;1.05;;
79578;SDS011;69051;52.406;5.280;2023-04-24T05:18:33;4.22;;;1.30;;
79578;SDS011;69051;52.406;5.280;2023-04-24T05:20:59;4.82;;;1.25;;
79578;SDS011;69051;52.406;5.280;2023-04-24T05:23:26;4.72;;;1.30;;
79578;SDS011;69051;52.406;5.280;2023-04-24T05:25:52;3.55;;;1.27;;
79578;SDS011;69051;52.406;5.280;2023-04-24T05:28:18;2.50;;;0.95;;
79578;SDS011;69051;52.406;5.280;2023-04-24T05:30:45;4.97;;;1.25;;
79578;SDS011;69051;52.406;5.280;2023-04-24T05:33:12;6.20;;;1.10;;
79578;SDS011;69051;52.406;5.280;2023-04-24T05:35:40;3.13;;;1.27;;
79578;SDS011;69051;52.406;5.280;2023-04-24T05:38:12;3.42;;;1.35;;
79578;SDS011;69051;52.406;5.280;2023-04-24T05:40:39;4.25;;;1.20;;
79578;SDS011;69051;52.406;5.280;2023-04-24T05:43:05;4.20;;;1.00;;
79578;SDS011;69051;52.406;5.280;2023-04-24T05:45:32;5.20;;;1.08;;
79578;SDS011;69051;52.406;5.280;2023-04-24T05:47:58;3.35;;;1.17;;
79578;SDS011;69051;52.406;5.280;2023-04-24T05:50:24;3.28;;;1.02;;
79578;SDS011;69051;52.406;5.280;2023-04-24T05:52:51;2.92;;;0.85;;
79578;SDS011;69051;52.406;5.280;2023-04-24T05:55:17;3.95;;;1.10;;
79578;SDS011;69051;52.406;5.280;2023-04-24T05:57:44;6.90;;;1.35;;
79578;SDS011;69051;52.406;5.280;2023-04-24T06:00:11;12.15;;;4.65;;
79578;SDS011;69051;52.406;5.280;2023-04-24T06:02:38;22.55;;;8.18;;
79578;SDS011;69051;52.406;5.280;2023-04-24T06:05:05;29.67;;;11.70;;
79578;SDS011;69051;52.406;5.280;2023-04-24T06:07:31;29.60;;;12.52;;
79578;SDS011;69051;52.406;5.280;2023-04-24T06:09:58;36.10;;;13.93;;
79578;SDS011;69051;52.406;5.280;2023-04-24T06:12:25;34.95;;;13.07;;
79578;SDS011;69051;52.406;5.280;2023-04-24T06:14:51;25.98;;;11.63;;
79578;SDS011;69051;52.406;5.280;2023-04-24T06:17:18;22.13;;;11.57;;
79578;SDS011;69051;52.406;5.280;2023-04-24T06:19:44;27.83;;;11.95;;
79578;SDS011;69051;52.406;5.280;2023-04-24T06:22:11;29.70;;;13.07;;
79578;SDS011;69051;52.406;5.280;2023-04-24T06:24:39;32.08;;;12.27;;
79578;SDS011;69051;52.406;5.280;2023-04-24T06:27:06;35.22;;;13.48;;
79578;SDS011;69051;52.406;5.280;2023-04-24T06:29:32;25.42;;;10.73;;
79578;SDS011;69051;52.406;5.280;2023-04-24T06:31:59;19.52;;;10.07;;
79578;SDS011;69051;52.406;5.280;2023-04-24T06:34:26;23.88;;;11.68;;
79578;SDS011;69051;52.406;5.280;2023-04-24T06:36:52;24.02;;;10.38;;
79578;SDS011;69051;52.406;5.280;2023-04-24T06:39:19;19.73;;;10.18;;
79578;SDS011;69051;52.406;5.280;2023-04-24T06:41:45;32.17;;;11.45;;
79578;SDS011;69051;52.406;5.280;2023-04-24T06:44:11;24.90;;;11.75;;
79578;SDS011;69051;52.406;5.280;2023-04-24T06:46:38;25.00;;;11.65;;
79578;SDS011;69051;52.406;5.280;2023-04-24T06:49:07;20.38;;;8.48;;
79578;SDS011;69051;52.406;5.280;2023-04-24T06:51:33;24.98;;;10.18;;
79578;SDS011;69051;52.406;5.280;2023-04-24T06:53:59;24.75;;;10.70;;
79578;SDS011;69051;52.406;5.280;2023-04-24T06:56:26;15.40;;;7.95;;
79578;SDS011;69051;52.406;5.280;2023-04-24T06:58:52;22.02;;;10.20;;
79578;SDS011;69051;52.406;5.280;2023-04-24T07:01:19;18.48;;;8.10;;
79578;SDS011;69051;52.406;5.280;2023-04-24T07:03:46;24.90;;;9.27;;
79578;SDS011;69051;52.406;5.280;2023-04-24T07:06:12;15.70;;;6.57;;
79578;SDS011;69051;52.406;5.280;2023-04-24T07:08:39;20.58;;;7.82;;
79578;SDS011;69051;52.406;5.280;2023-04-24T07:11:08;22.98;;;9.15;;
79578;SDS011;69051;52.406;5.280;2023-04-24T07:13:34;27.45;;;8.63;;
79578;SDS011;69051;52.406;5.280;2023-04-24T07:16:01;24.00;;;10.05;;
79578;SDS011;69051;52.406;5.280;2023-04-24T07:18:28;19.23;;;7.95;;
79578;SDS011;69051;52.406;5.280;2023-04-24T07:20:54;15.55;;;7.47;;
79578;SDS011;69051;52.406;5.280;2023-04-24T07:23:20;26.30;;;9.73;;
79578;SDS011;69051;52.406;5.280;2023-04-24T07:25:47;20.10;;;8.10;;
79578;SDS011;69051;52.406;5.280;2023-04-24T07:28:13;22.08;;;8.57;;
79578;SDS011;69051;52.406;5.280;2023-04-24T07:30:40;16.90;;;8.07;;
79578;SDS011;69051;52.406;5.280;2023-04-24T07:33:06;19.95;;;7.47;;
79578;SDS011;69051;52.406;5.280;2023-04-24T07:35:33;15.20;;;7.20;;
79578;SDS011;69051;52.406;5.280;2023-04-24T07:38:00;21.48;;;8.65;;
79578;SDS011;69051;52.406;5.280;2023-04-24T07:40:26;18.48;;;8.23;;
79578;SDS011;69051;52.406;5.280;2023-04-24T07:42:53;20.50;;;7.15;;
79578;SDS011;69051;52.406;5.280;2023-04-24T07:45:19;20.98;;;7.57;;
79578;SDS011;69051;52.406;5.280;2023-04-24T07:47:46;25.90;;;8.32;;
79578;SDS011;69051;52.406;5.280;2023-04-24T07:50:13;17.90;;;8.18;;
79578;SDS011;69051;52.406;5.280;2023-04-24T07:52:39;17.02;;;6.93;;
79578;SDS011;69051;52.406;5.280;2023-04-24T07:55:06;22.33;;;8.52;;
79578;SDS011;69051;52.406;5.280;2023-04-24T07:57:33;16.80;;;6.38;;
79578;SDS011;69051;52.406;5.280;2023-04-24T07:59:59;18.23;;;6.90;;
79578;SDS011;69051;52.406;5.280;2023-04-24T08:02:25;17.65;;;7.82;;
79578;SDS011;69051;52.406;5.280;2023-04-24T08:04:53;22.27;;;7.55;;
79578;SDS011;69051;52.406;5.280;2023-04-24T08:07:25;18.40;;;6.28;;
79578;SDS011;69051;52.406;5.280;2023-04-24T08:09:51;23.60;;;8.48;;
79578;SDS011;69051;52.406;5.280;2023-04-24T08:12:18;17.00;;;6.20;;
79578;SDS011;69051;52.406;5.280;2023-04-24T08:14:44;18.48;;;5.25;;
79578;SDS011;69051;52.406;5.280;2023-04-24T08:17:11;17.10;;;5.35;;
79578;SDS011;69051;52.406;5.280;2023-04-24T08:19:37;23.73;;;4.30;;
79578;SDS011;69051;52.406;5.280;2023-04-24T08:22:08;24.67;;;4.93;;
79578;SDS011;69051;52.406;5.280;2023-04-24T08:24:35;20.35;;;3.83;;
79578;SDS011;69051;52.406;5.280;2023-04-24T08:27:02;17.30;;;4.00;;
79578;SDS011;69051;52.406;5.280;2023-04-24T08:29:29;18.15;;;3.85;;
79578;SDS011;69051;52.406;5.280;2023-04-24T08:31:55;22.45;;;3.53;;
79578;SDS011;69051;52.406;5.280;2023-04-24T08:34:22;26.38;;;3.47;;
79578;SDS011;69051;52.406;5.280;2023-04-24T08:36:48;21.80;;;3.30;;
79578;SDS011;69051;52.406;5.280;2023-04-24T08:39:15;21.38;;;3.10;;
79578;SDS011;69051;52.406;5.280;2023-04-24T08:41:42;18.83;;;3.55;;
79578;SDS011;69051;52.406;5.280;2023-04-24T08:44:09;24.33;;;3.88;;
79578;SDS011;69051;52.406;5.280;2023-04-24T08:46:37;15.90;;;2.92;;
79578;SDS011;69051;52.406;5.280;2023-04-24T08:49:03;13.65;;;2.70;;
79578;SDS011;69051;52.406;5.280;2023-04-24T08:51:30;18.38;;;3.20;;
79578;SDS011;69051;52.406;5.280;2023-04-24T08:53:57;18.42;;;2.97;;
79578;SDS011;69051;52.406;5.280;2023-04-24T08:56:23;14.65;;;2.95;;
79578;SDS011;69051;52.406;5.280;2023-04-24T08:58:51;15.48;;;3.00;;
79578;SDS011;69051;52.406;5.280;2023-04-24T09:01:18;16.83;;;3.28;;
79578;SDS011;69051;52.406;5.280;2023-04-24T09:03:46;14.93;;;2.72;;
79578;SDS011;69051;52.406;5.280;2023-04-24T09:06:16;17.02;;;2.83;;
79578;SDS011;69051;52.406;5.280;2023-04-24T09:08:43;14.02;;;2.35;;
79578;SDS011;69051;52.406;5.280;2023-04-24T09:11:11;18.58;;;2.67;;
79578;SDS011;69051;52.406;5.280;2023-04-24T09:13:38;9.65;;;2.40;;
79578;SDS011;69051;52.406;5.280;2023-04-24T09:16:04;15.20;;;2.50;;
79578;SDS011;69051;52.406;5.280;2023-04-24T09:18:31;20.08;;;3.33;;
79578;SDS011;69051;52.406;5.280;2023-04-24T09:21:05;12.32;;;2.65;;
79578;SDS011;69051;52.406;5.280;2023-04-24T09:23:33;8.75;;;2.88;;
79578;SDS011;69051;52.406;5.280;2023-04-24T09:26:00;13.38;;;2.22;;
79578;SDS011;69051;52.406;5.280;2023-04-24T09:31:02;10.82;;;2.15;;
79578;SDS011;69051;52.406;5.280;2023-04-24T09:33:35;13.40;;;2.92;;
79578;SDS011;69051;52.406;5.280;2023-04-24T09:36:02;15.27;;;3.08;;
79578;SDS011;69051;52.406;5.280;2023-04-24T09:38:32;15.20;;;2.70;;
79578;SDS011;69051;52.406;5.280;2023-04-24T09:41:04;15.38;;;2.55;;
79578;SDS011;69051;52.406;5.280;2023-04-24T09:43:34;10.10;;;1.90;;
79578;SDS011;69051;52.406;5.280;2023-04-24T09:46:05;11.80;;;2.78;;
79578;SDS011;69051;52.406;5.280;2023-04-24T09:48:34;13.18;;;2.30;;
79578;SDS011;69051;52.406;5.280;2023-04-24T09:51:04;13.25;;;2.90;;
79578;SDS011;69051;52.406;5.280;2023-04-24T09:53:37;12.65;;;2.33;;
79578;SDS011;69051;52.406;5.280;2023-04-24T09:56:08;16.98;;;2.33;;
79578;SDS011;69051;52.406;5.280;2023-04-24T09:58:36;13.27;;;2.20;;
79578;SDS011;69051;52.406;5.280;2023-04-24T10:01:03;15.52;;;2.55;;
79578;SDS011;69051;52.406;5.280;2023-04-24T10:03:30;8.02;;;2.05;;
79578;SDS011;69051;52.406;5.280;2023-04-24T10:06:01;10.40;;;2.08;;
79578;SDS011;69051;52.406;5.280;2023-04-24T10:08:34;8.38;;;2.08;;
79578;SDS011;69051;52.406;5.280;2023-04-24T10:11:01;9.65;;;1.92;;
79578;SDS011;69051;52.406;5.280;2023-04-24T10:13:28;6.85;;;2.00;;
79578;SDS011;69051;52.406;5.280;2023-04-24T10:15:55;12.30;;;2.75;;
79578;SDS011;69051;52.406;5.280;2023-04-24T10:18:22;9.20;;;1.85;;
79578;SDS011;69051;52.406;5.280;2023-04-24T10:20:49;12.65;;;2.08;;
79578;SDS011;69051;52.406;5.280;2023-04-24T10:23:16;6.07;;;1.58;;
79578;SDS011;69051;52.406;5.280;2023-04-24T10:25:46;8.68;;;1.83;;
79578;SDS011;69051;52.406;5.280;2023-04-24T10:28:13;7.85;;;1.90;;
79578;SDS011;69051;52.406;5.280;2023-04-24T10:30:39;8.45;;;1.90;;
79578;SDS011;69051;52.406;5.280;2023-04-24T10:33:09;11.85;;;1.73;;
79578;SDS011;69051;52.406;5.280;2023-04-24T10:35:37;14.10;;;2.25;;
79578;SDS011;69051;52.406;5.280;2023-04-24T10:38:11;8.35;;;1.58;;
79578;SDS011;69051;52.406;5.280;2023-04-24T10:40:38;6.13;;;1.60;;
79578;SDS011;69051;52.406;5.280;2023-04-24T10:43:06;4.53;;;1.45;;
79578;SDS011;69051;52.406;5.280;2023-04-24T10:45:34;8.15;;;1.73;;
79578;SDS011;69051;52.406;5.280;2023-04-24T10:48:01;12.70;;;2.15;;
79578;SDS011;69051;52.406;5.280;2023-04-24T10:50:48;4.93;;;1.50;;
79578;SDS011;69051;52.406;5.280;2023-04-24T10:53:19;8.55;;;1.67;;
79578;SDS011;69051;52.406;5.280;2023-04-24T10:55:50;7.35;;;1.55;;
79578;SDS011;69051;52.406;5.280;2023-04-24T10:58:23;6.03;;;1.50;;
79578;SDS011;69051;52.406;5.280;2023-04-24T11:00:58;4.78;;;1.55;;
79578;SDS011;69051;52.406;5.280;2023-04-24T11:06:06;7.32;;;1.50;;
79578;SDS011;69051;52.406;5.280;2023-04-24T11:08:37;5.15;;;1.10;;
79578;SDS011;69051;52.406;5.280;2023-04-24T11:11:09;7.60;;;1.80;;
79578;SDS011;69051;52.406;5.280;2023-04-24T11:16:29;9.35;;;1.50;;
79578;SDS011;69051;52.406;5.280;2023-04-24T11:24:29;3.00;;;0.80;;
79578;SDS011;69051;52.406;5.280;2023-04-24T11:29:40;4.40;;;1.20;;
79578;SDS011;69051;52.406;5.280;2023-04-24T11:32:17;6.55;;;1.02;;
79578;SDS011;69051;52.406;5.280;2023-04-24T11:34:46;4.68;;;0.98;;
79578;SDS011;69051;52.406;5.280;2023-04-24T11:37:16;7.43;;;1.40;;
79578;SDS011;69051;52.406;5.280;2023-04-24T11:39:43;4.18;;;0.85;;
79578;SDS011;69051;52.406;5.280;2023-04-24T11:42:09;6.35;;;1.05;;
79578;SDS011;69051;52.406;5.280;2023-04-24T11:44:36;5.95;;;1.35;;
79578;SDS011;69051;52.406;5.280;2023-04-24T11:47:05;5.55;;;1.38;;
79578;SDS011;69051;52.406;5.280;2023-04-24T11:49:38;7.50;;;1.65;;
79578;SDS011;69051;52.406;5.280;2023-04-24T11:52:05;10.93;;;1.45;;
79578;SDS011;69051;52.406;5.280;2023-04-24T11:54:31;4.25;;;0.93;;
79578;SDS011;69051;52.406;5.280;2023-04-24T11:56:58;9.15;;;1.38;;
79578;SDS011;69051;52.406;5.280;2023-04-24T11:59:24;5.10;;;1.20;;
79578;SDS011;69051;52.406;5.280;2023-04-24T12:01:51;4.65;;;0.82;;
79578;SDS011;69051;52.406;5.280;2023-04-24T12:04:17;4.63;;;0.90;;
79578;SDS011;69051;52.406;5.280;2023-04-24T12:12:07;5.80;;;1.02;;
79578;SDS011;69051;52.406;5.280;2023-04-24T12:14:41;7.47;;;1.40;;
79578;SDS011;69051;52.406;5.280;2023-04-24T12:17:15;10.10;;;1.90;;
79578;SDS011;69051;52.406;5.280;2023-04-24T12:19:48;7.65;;;1.80;;
79578;SDS011;69051;52.406;5.280;2023-04-24T12:22:15;7.50;;;1.85;;
79578;SDS011;69051;52.406;5.280;2023-04-24T12:25:01;10.68;;;1.50;;
79578;SDS011;69051;52.406;5.280;2023-04-24T12:27:29;10.35;;;1.70;;
79578;SDS011;69051;52.406;5.280;2023-04-24T12:29:58;9.15;;;2.10;;
79578;SDS011;69051;52.406;5.280;2023-04-24T12:32:25;7.63;;;1.40;;
79578;SDS011;69051;52.406;5.280;2023-04-24T12:34:53;11.23;;;1.75;;
79578;SDS011;69051;52.406;5.280;2023-04-24T12:37:22;6.82;;;1.55;;
79578;SDS011;69051;52.406;5.280;2023-04-24T12:40:00;13.95;;;1.85;;
79578;SDS011;69051;52.406;5.280;2023-04-24T12:42:29;6.97;;;1.73;;
79578;SDS011;69051;52.406;5.280;2023-04-24T12:44:57;13.27;;;2.22;;
79578;SDS011;69051;52.406;5.280;2023-04-24T12:47:29;14.60;;;2.00;;
79578;SDS011;69051;52.406;5.280;2023-04-24T12:49:56;18.80;;;2.47;;
79578;SDS011;69051;52.406;5.280;2023-04-24T12:52:23;11.95;;;3.33;;
79578;SDS011;69051;52.406;5.280;2023-04-24T12:54:50;14.68;;;2.67;;
79578;SDS011;69051;52.406;5.280;2023-04-24T12:57:19;19.27;;;3.25;;
79578;SDS011;69051;52.406;5.280;2023-04-24T12:59:45;16.05;;;2.55;;
79578;SDS011;69051;52.406;5.280;2023-04-24T13:02:12;11.57;;;2.55;;
79578;SDS011;69051;52.406;5.280;2023-04-24T13:04:38;11.57;;;3.15;;
79578;SDS011;69051;52.406;5.280;2023-04-24T13:07:05;14.60;;;2.80;;
79578;SDS011;69051;52.406;5.280;2023-04-24T13:09:34;15.48;;;3.33;;
79578;SDS011;69051;52.406;5.280;2023-04-24T13:12:01;15.50;;;2.47;;
79578;SDS011;69051;52.406;5.280;2023-04-24T13:14:27;13.48;;;2.58;;
79578;SDS011;69051;52.406;5.280;2023-04-24T13:16:54;15.05;;;3.20;;
79578;SDS011;69051;52.406;5.280;2023-04-24T13:19:20;15.32;;;2.53;;
79578;SDS011;69051;52.406;5.280;2023-04-24T13:21:47;15.32;;;2.95;;
79578;SDS011;69051;52.406;5.280;2023-04-24T13:24:13;11.65;;;2.05;;
79578;SDS011;69051;52.406;5.280;2023-04-24T13:26:41;14.80;;;2.80;;
79578;SDS011;69051;52.406;5.280;2023-04-24T13:29:08;15.65;;;2.95;;
79578;SDS011;69051;52.406;5.280;2023-04-24T13:31:35;10.27;;;2.22;;
79578;SDS011;69051;52.406;5.280;2023-04-24T13:34:02;19.13;;;3.75;;
79578;SDS011;69051;52.406;5.280;2023-04-24T13:36:29;19.67;;;3.70;;
79578;SDS011;69051;52.406;5.280;2023-04-24T13:38:56;13.80;;;2.50;;
79578;SDS011;69051;52.406;5.280;2023-04-24T13:41:22;16.27;;;3.55;;
79578;SDS011;69051;52.406;5.280;2023-04-24T13:43:49;19.52;;;3.65;;
79578;SDS011;69051;52.406;5.280;2023-04-24T13:46:15;18.98;;;3.97;;
79578;SDS011;69051;52.406;5.280;2023-04-24T13:48:42;17.67;;;3.47;;
79578;SDS011;69051;52.406;5.280;2023-04-24T13:51:08;20.75;;;4.13;;
79578;SDS011;69051;52.406;5.280;2023-04-24T13:53:36;13.88;;;3.70;;
79578;SDS011;69051;52.406;5.280;2023-04-24T13:56:04;8.40;;;1.95;;
79578;SDS011;69051;52.406;5.280;2023-04-24T13:58:31;10.45;;;2.38;;
79578;SDS011;69051;52.406;5.280;2023-04-24T14:00:58;7.70;;;2.00;;
79578;SDS011;69051;52.406;5.280;2023-04-24T14:03:24;9.73;;;2.63;;
79578;SDS011;69051;52.406;5.280;2023-04-24T14:05:51;15.50;;;2.60;;
79578;SDS011;69051;52.406;5.280;2023-04-24T14:08:18;8.90;;;2.40;;
79578;SDS011;69051;52.406;5.280;2023-04-24T14:10:44;11.07;;;2.22;;
79578;SDS011;69051;52.406;5.280;2023-04-24T14:13:11;12.95;;;2.70;;
79578;SDS011;69051;52.406;5.280;2023-04-24T14:15:38;12.45;;;2.55;;
79578;SDS011;69051;52.406;5.280;2023-04-24T14:18:04;15.88;;;2.55;;
79578;SDS011;69051;52.406;5.280;2023-04-24T14:20:31;15.20;;;3.80;;
79578;SDS011;69051;52.406;5.280;2023-04-24T14:22:58;11.80;;;2.30;;
79578;SDS011;69051;52.406;5.280;2023-04-24T14:25:25;11.32;;;2.40;;
79578;SDS011;69051;52.406;5.280;2023-04-24T14:27:51;11.65;;;3.05;;
79578;SDS011;69051;52.406;5.280;2023-04-24T14:30:18;11.38;;;2.90;;
79578;SDS011;69051;52.406;5.280;2023-04-24T14:32:45;15.15;;;2.97;;
79578;SDS011;69051;52.406;5.280;2023-04-24T14:35:11;11.98;;;2.65;;
79578;SDS011;69051;52.406;5.280;2023-04-24T14:37:38;11.38;;;3.25;;
79578;SDS011;69051;52.406;5.280;2023-04-24T14:40:07;13.48;;;2.45;;
79578;SDS011;69051;52.406;5.280;2023-04-24T14:42:55;19.98;;;3.30;;
79578;SDS011;69051;52.406;5.280;2023-04-24T14:45:23;16.55;;;3.63;;
79578;SDS011;69051;52.406;5.280;2023-04-24T14:47:53;11.25;;;3.28;;
79578;SDS011;69051;52.406;5.280;2023-04-24T14:50:20;13.80;;;2.72;;
79578;SDS011;69051;52.406;5.280;2023-04-24T14:52:49;16.52;;;3.00;;
79578;SDS011;69051;52.406;5.280;2023-04-24T14:55:16;13.73;;;3.28;;
79578;SDS011;69051;52.406;5.280;2023-04-24T14:57:43;15.82;;;3.00;;
79578;SDS011;69051;52.406;5.280;2023-04-24T15:00:09;13.82;;;2.63;;
79578;SDS011;69051;52.406;5.280;2023-04-24T15:02:37;12.77;;;2.80;;